EZS35JU LFRS-LSGG
Flight info
| Callsign | EZS35JU |
|---|---|
| Flight time | 1h 7m |
| Altitude | 27000 |
| Route | LUGEN4N LUGEN UM184 TUPAR DCT DIDRU DCT BEBIX/N0394F280 DCT VALKU/N0399F290 DCT TIS DCT MEBAK DCT RUSIT/N0381F250 Z87 BELUS |
| Aircraft | A320/M-SDE2E3FGHIJ1RWXYZ/LB1 |
Departure
| Time | 2026-05-04 19:19 |
|---|---|
| Airport | Nantes Atlantique Airport (LFRS) |
Arrival
| Time | 2026-05-04 20:26 |
|---|---|
| Airport | Geneva International Airport (LSGG) |
| Time | Latitude | Longitude | Altitude | Speed | Heading |
|---|---|---|---|---|---|
| 2026-05-04 18:33 | 47.15684 | -1.60215 | 90 ft | 0 kts | 36° |
| 2026-05-04 19:09 | 47.15680 | -1.60219 | 90 ft | 3 kts | 35° |
| 2026-05-04 19:09 | 47.15658 | -1.60241 | 90 ft | 4 kts | 35° |
| 2026-05-04 19:09 | 47.15640 | -1.60265 | 90 ft | 2 kts | 55° |
| 2026-05-04 19:10 | 47.15627 | -1.60285 | 93 ft | 4 kts | 358° |
| 2026-05-04 19:10 | 47.15615 | -1.60279 | 90 ft | 4 kts | 310° |
| 2026-05-04 19:10 | 47.15599 | -1.60240 | 92 ft | 1 kts | 297° |
| 2026-05-04 19:12 | 47.15600 | -1.60240 | 90 ft | 0 kts | 297° |
| 2026-05-04 19:13 | 47.15611 | -1.60269 | 90 ft | 8 kts | 301° |
| 2026-05-04 19:13 | 47.15657 | -1.60340 | 93 ft | 11 kts | 319° |
| 2026-05-04 19:13 | 47.15715 | -1.60417 | 90 ft | 11 kts | 309° |
| 2026-05-04 19:13 | 47.15702 | -1.60511 | 92 ft | 11 kts | 214° |
| 2026-05-04 19:14 | 47.15627 | -1.60569 | 92 ft | 13 kts | 207° |
| 2026-05-04 19:14 | 47.15546 | -1.60631 | 92 ft | 13 kts | 207° |
| 2026-05-04 19:14 | 47.15460 | -1.60696 | 90 ft | 15 kts | 207° |
| 2026-05-04 19:14 | 47.15370 | -1.60765 | 92 ft | 14 kts | 207° |
| 2026-05-04 19:15 | 47.15280 | -1.60834 | 92 ft | 15 kts | 207° |
| 2026-05-04 19:15 | 47.15180 | -1.60910 | 90 ft | 16 kts | 207° |
| 2026-05-04 19:15 | 47.15076 | -1.60988 | 89 ft | 18 kts | 207° |
| 2026-05-04 19:15 | 47.14956 | -1.61081 | 88 ft | 20 kts | 207° |
| 2026-05-04 19:16 | 47.14829 | -1.61176 | 91 ft | 21 kts | 207° |
| 2026-05-04 19:16 | 47.14706 | -1.61270 | 91 ft | 17 kts | 207° |
| 2026-05-04 19:16 | 47.14597 | -1.61354 | 89 ft | 19 kts | 207° |
| 2026-05-04 19:16 | 47.14470 | -1.61450 | 90 ft | 21 kts | 207° |
| 2026-05-04 19:17 | 47.14347 | -1.61544 | 87 ft | 21 kts | 207° |
| 2026-05-04 19:17 | 47.14234 | -1.61629 | 85 ft | 15 kts | 207° |
| 2026-05-04 19:17 | 47.14157 | -1.61746 | 86 ft | 18 kts | 249° |
| 2026-05-04 19:17 | 47.14153 | -1.61892 | 84 ft | 10 kts | 295° |
| 2026-05-04 19:18 | 47.14177 | -1.61935 | 89 ft | 0 kts | 338° |
| 2026-05-04 19:18 | 47.14201 | -1.61924 | 84 ft | 11 kts | 25° |
| 2026-05-04 19:18 | 47.14472 | -1.61717 | 92 ft | 81 kts | 27° |
| 2026-05-04 19:18 | 47.15162 | -1.61191 | 89 ft | 141 kts | 27° |
| 2026-05-04 19:19 | 47.16144 | -1.60435 | 359 ft | 164 kts | 27° |
| 2026-05-04 19:19 | 47.17060 | -1.59435 | 1019 ft | 171 kts | 55° |
| 2026-05-04 19:19 | 47.17263 | -1.57739 | 1642 ft | 176 kts | 104° |
| 2026-05-04 19:19 | 47.16594 | -1.56254 | 2310 ft | 177 kts | 142° |
| 2026-05-04 19:20 | 47.15527 | -1.55371 | 2958 ft | 176 kts | 153° |
| 2026-05-04 19:20 | 47.14421 | -1.54561 | 3493 ft | 184 kts | 153° |
| 2026-05-04 19:20 | 47.13203 | -1.53676 | 3782 ft | 207 kts | 153° |
| 2026-05-04 19:20 | 47.11835 | -1.52684 | 4027 ft | 231 kts | 153° |
| 2026-05-04 19:21 | 47.10314 | -1.51581 | 4387 ft | 256 kts | 153° |
| 2026-05-04 19:21 | 47.08661 | -1.50375 | 4980 ft | 272 kts | 152° |
| 2026-05-04 19:21 | 47.06968 | -1.49064 | 5828 ft | 277 kts | 144° |
| 2026-05-04 19:21 | 47.05477 | -1.47279 | 6768 ft | 277 kts | 137° |
| 2026-05-04 19:22 | 47.04026 | -1.45399 | 7695 ft | 279 kts | 136° |
| 2026-05-04 19:22 | 47.02579 | -1.43493 | 8625 ft | 280 kts | 136° |
| 2026-05-04 19:22 | 47.01127 | -1.41566 | 9545 ft | 283 kts | 136° |
| 2026-05-04 19:22 | 46.99654 | -1.39617 | 10305 ft | 291 kts | 136° |
| 2026-05-04 19:23 | 46.98088 | -1.37558 | 10606 ft | 313 kts | 137° |
| 2026-05-04 19:23 | 46.96438 | -1.35407 | 11240 ft | 320 kts | 137° |
| 2026-05-04 19:23 | 46.94770 | -1.33237 | 12032 ft | 322 kts | 138° |
| 2026-05-04 19:23 | 46.93083 | -1.31044 | 12812 ft | 326 kts | 138° |
| 2026-05-04 19:24 | 46.91377 | -1.28829 | 13538 ft | 331 kts | 139° |
| 2026-05-04 19:24 | 46.89649 | -1.26589 | 14272 ft | 333 kts | 139° |
| 2026-05-04 19:24 | 46.87906 | -1.24332 | 14951 ft | 336 kts | 139° |
| 2026-05-04 19:24 | 46.86146 | -1.22055 | 15623 ft | 339 kts | 139° |
| 2026-05-04 19:25 | 46.84366 | -1.19750 | 16248 ft | 344 kts | 140° |
| 2026-05-04 19:25 | 46.82563 | -1.17421 | 16900 ft | 348 kts | 140° |
| 2026-05-04 19:25 | 46.80750 | -1.15072 | 17562 ft | 351 kts | 140° |
| 2026-05-04 19:25 | 46.78918 | -1.12693 | 18221 ft | 354 kts | 140° |
| 2026-05-04 19:26 | 46.77074 | -1.10298 | 18797 ft | 357 kts | 140° |
| 2026-05-04 19:26 | 46.75214 | -1.07884 | 19395 ft | 359 kts | 140° |
| 2026-05-04 19:26 | 46.73354 | -1.05432 | 20001 ft | 362 kts | 136° |
| 2026-05-04 19:26 | 46.71883 | -1.02437 | 20582 ft | 370 kts | 118° |
| 2026-05-04 19:27 | 46.71102 | -0.98831 | 21156 ft | 377 kts | 106° |
| 2026-05-04 19:27 | 46.70536 | -0.95138 | 21714 ft | 380 kts | 106° |
| 2026-05-04 19:27 | 46.69960 | -0.91318 | 22286 ft | 382 kts | 106° |
| 2026-05-04 19:27 | 46.69402 | -0.87575 | 22837 ft | 385 kts | 106° |
| 2026-05-04 19:28 | 46.68832 | -0.83750 | 23398 ft | 388 kts | 106° |
| 2026-05-04 19:28 | 46.68245 | -0.79842 | 23865 ft | 391 kts | 108° |
| 2026-05-04 19:28 | 46.67660 | -0.75970 | 24391 ft | 391 kts | 108° |
| 2026-05-04 19:28 | 46.67079 | -0.72150 | 24882 ft | 392 kts | 108° |
| 2026-05-04 19:29 | 46.66485 | -0.68278 | 25328 ft | 393 kts | 108° |
| 2026-05-04 19:29 | 46.65882 | -0.64381 | 25763 ft | 395 kts | 109° |
| 2026-05-04 19:29 | 46.65277 | -0.60469 | 26211 ft | 397 kts | 108° |
| 2026-05-04 19:29 | 46.64670 | -0.56541 | 26644 ft | 399 kts | 108° |
| 2026-05-04 19:30 | 46.64061 | -0.52596 | 27064 ft | 400 kts | 108° |
| 2026-05-04 19:30 | 46.63446 | -0.48633 | 27474 ft | 403 kts | 109° |
| 2026-05-04 19:30 | 46.62828 | -0.44657 | 27878 ft | 404 kts | 109° |
| 2026-05-04 19:30 | 46.62202 | -0.40661 | 28285 ft | 407 kts | 109° |
| 2026-05-04 19:31 | 46.61571 | -0.36646 | 28693 ft | 408 kts | 109° |
| 2026-05-04 19:31 | 46.60936 | -0.32610 | 28930 ft | 412 kts | 109° |
| 2026-05-04 19:31 | 46.60314 | -0.28617 | 28959 ft | 396 kts | 109° |
| 2026-05-04 19:32 | 46.59125 | -0.20959 | 28961 ft | 384 kts | 109° |
| 2026-05-04 19:32 | 46.57923 | -0.13414 | 28957 ft | 383 kts | 109° |
| 2026-05-04 19:33 | 46.56721 | -0.05888 | 28955 ft | 382 kts | 109° |
| 2026-05-04 19:33 | 46.55517 | 0.01640 | 28929 ft | 383 kts | 110° |
| 2026-05-04 19:34 | 46.54310 | 0.09204 | 28949 ft | 385 kts | 110° |
| 2026-05-04 19:34 | 46.53091 | 0.16771 | 28946 ft | 384 kts | 110° |
| 2026-05-04 19:35 | 46.51864 | 0.24308 | 28941 ft | 383 kts | 110° |
| 2026-05-04 19:35 | 46.50641 | 0.31848 | 28941 ft | 384 kts | 110° |
| 2026-05-04 19:36 | 46.49414 | 0.39370 | 28939 ft | 382 kts | 110° |
| 2026-05-04 19:36 | 46.48173 | 0.46898 | 28920 ft | 384 kts | 110° |
| 2026-05-04 19:37 | 46.46931 | 0.54434 | 28929 ft | 384 kts | 110° |
| 2026-05-04 19:37 | 46.45682 | 0.61965 | 28926 ft | 384 kts | 110° |
| 2026-05-04 19:38 | 46.44428 | 0.69497 | 28925 ft | 384 kts | 110° |
| 2026-05-04 19:38 | 46.43177 | 0.76977 | 28924 ft | 385 kts | 110° |
| 2026-05-04 19:39 | 46.41909 | 0.84530 | 28895 ft | 386 kts | 110° |
| 2026-05-04 19:39 | 46.40635 | 0.92081 | 28902 ft | 385 kts | 110° |
| 2026-05-04 19:40 | 46.39341 | 0.99680 | 28907 ft | 386 kts | 110° |
| 2026-05-04 19:40 | 46.38066 | 1.07185 | 28897 ft | 387 kts | 110° |
| 2026-05-04 19:41 | 46.36784 | 1.14746 | 28911 ft | 387 kts | 110° |
| 2026-05-04 19:41 | 46.35503 | 1.22307 | 28873 ft | 387 kts | 109° |
| 2026-05-04 19:42 | 46.34194 | 1.29912 | 28886 ft | 387 kts | 109° |
| 2026-05-04 19:42 | 46.32875 | 1.37438 | 28887 ft | 389 kts | 110° |
| 2026-05-04 19:43 | 46.31549 | 1.45034 | 28899 ft | 390 kts | 109° |
| 2026-05-04 19:43 | 46.30226 | 1.52682 | 28915 ft | 391 kts | 109° |
| 2026-05-04 19:44 | 46.28892 | 1.60306 | 28901 ft | 392 kts | 109° |
| 2026-05-04 19:44 | 46.27548 | 1.67923 | 28911 ft | 389 kts | 109° |
| 2026-05-04 19:45 | 46.26198 | 1.75545 | 28908 ft | 392 kts | 109° |
| 2026-05-04 19:45 | 46.24845 | 1.83176 | 28916 ft | 394 kts | 109° |
| 2026-05-04 19:46 | 46.23485 | 1.90836 | 28929 ft | 394 kts | 109° |
| 2026-05-04 19:46 | 46.22121 | 1.98472 | 28939 ft | 392 kts | 109° |
| 2026-05-04 19:47 | 46.20757 | 2.06107 | 28929 ft | 395 kts | 109° |
| 2026-05-04 19:47 | 46.19380 | 2.13768 | 28940 ft | 394 kts | 109° |
| 2026-05-04 19:48 | 46.17994 | 2.21390 | 28937 ft | 392 kts | 109° |
| 2026-05-04 19:48 | 46.16609 | 2.28992 | 28933 ft | 391 kts | 109° |
| 2026-05-04 19:49 | 46.15221 | 2.36584 | 28925 ft | 391 kts | 110° |
| 2026-05-04 19:49 | 46.13822 | 2.44190 | 28901 ft | 393 kts | 110° |
| 2026-05-04 19:50 | 46.12418 | 2.51826 | 28924 ft | 395 kts | 110° |
| 2026-05-04 19:50 | 46.11008 | 2.59462 | 28925 ft | 395 kts | 109° |
| 2026-05-04 19:51 | 46.09591 | 2.67121 | 28925 ft | 397 kts | 109° |
| 2026-05-04 19:51 | 46.08148 | 2.74760 | 28942 ft | 396 kts | 110° |
| 2026-05-04 19:52 | 46.06943 | 2.81140 | 28912 ft | 397 kts | 110° |
| 2026-05-04 19:52 | 46.05508 | 2.88783 | 28902 ft | 393 kts | 110° |
| 2026-05-04 19:53 | 46.04070 | 2.96391 | 28907 ft | 393 kts | 110° |
| 2026-05-04 19:53 | 46.02622 | 3.04047 | 28931 ft | 400 kts | 110° |
| 2026-05-04 19:54 | 46.01168 | 3.11780 | 28943 ft | 400 kts | 110° |
| 2026-05-04 19:54 | 45.99698 | 3.19458 | 28921 ft | 398 kts | 111° |
| 2026-05-04 19:55 | 45.98204 | 3.27114 | 28915 ft | 397 kts | 111° |
| 2026-05-04 19:55 | 45.96729 | 3.34767 | 28922 ft | 399 kts | 110° |
| 2026-05-04 19:56 | 45.95237 | 3.42511 | 28941 ft | 404 kts | 111° |
| 2026-05-04 19:56 | 45.93732 | 3.50256 | 28986 ft | 401 kts | 111° |
| 2026-05-04 19:57 | 45.92240 | 3.57958 | 28966 ft | 399 kts | 111° |
| 2026-05-04 19:57 | 45.90746 | 3.65626 | 28961 ft | 399 kts | 112° |
| 2026-05-04 19:58 | 45.89255 | 3.73230 | 28948 ft | 392 kts | 111° |
| 2026-05-04 19:58 | 45.87776 | 3.80795 | 28936 ft | 393 kts | 112° |
| 2026-05-04 19:59 | 45.86274 | 3.88365 | 28940 ft | 395 kts | 112° |
| 2026-05-04 19:59 | 45.84752 | 3.95952 | 28936 ft | 398 kts | 113° |
| 2026-05-04 20:00 | 45.83211 | 4.03627 | 28946 ft | 401 kts | 113° |
| 2026-05-04 20:00 | 45.81667 | 4.11327 | 28959 ft | 402 kts | 113° |
| 2026-05-04 20:01 | 45.80139 | 4.18972 | 28964 ft | 402 kts | 112° |
| 2026-05-04 20:01 | 45.78592 | 4.26672 | 28972 ft | 402 kts | 113° |
| 2026-05-04 20:02 | 45.77024 | 4.34371 | 28952 ft | 403 kts | 113° |
| 2026-05-04 20:02 | 45.75451 | 4.42071 | 28967 ft | 403 kts | 113° |
| 2026-05-04 20:03 | 45.73880 | 4.49782 | 28969 ft | 404 kts | 113° |
| 2026-05-04 20:03 | 45.72304 | 4.57496 | 28976 ft | 404 kts | 113° |
| 2026-05-04 20:04 | 45.70718 | 4.65205 | 28982 ft | 404 kts | 112° |
| 2026-05-04 20:04 | 45.69327 | 4.73037 | 28957 ft | 408 kts | 109° |
| 2026-05-04 20:05 | 45.68088 | 4.80921 | 28652 ft | 401 kts | 108° |
| 2026-05-04 20:05 | 45.67483 | 4.84779 | 28376 ft | 395 kts | 109° |
| 2026-05-04 20:05 | 45.66869 | 4.88580 | 28111 ft | 390 kts | 109° |
| 2026-05-04 20:05 | 45.66253 | 4.92339 | 27844 ft | 386 kts | 109° |
| 2026-05-04 20:06 | 45.65633 | 4.96067 | 27569 ft | 385 kts | 109° |
| 2026-05-04 20:06 | 45.65009 | 4.99779 | 27296 ft | 383 kts | 109° |
| 2026-05-04 20:06 | 45.64390 | 5.03449 | 26884 ft | 378 kts | 109° |
| 2026-05-04 20:06 | 45.63777 | 5.07086 | 26457 ft | 375 kts | 109° |
| 2026-05-04 20:07 | 45.63169 | 5.10699 | 26019 ft | 373 kts | 108° |
| 2026-05-04 20:07 | 45.62566 | 5.14282 | 25593 ft | 370 kts | 108° |
| 2026-05-04 20:07 | 45.61964 | 5.17845 | 25145 ft | 368 kts | 108° |
| 2026-05-04 20:07 | 45.61360 | 5.21388 | 24691 ft | 366 kts | 108° |
| 2026-05-04 20:08 | 45.60759 | 5.24914 | 24236 ft | 365 kts | 108° |
| 2026-05-04 20:08 | 45.60160 | 5.28424 | 23779 ft | 364 kts | 108° |
| 2026-05-04 20:08 | 45.59749 | 5.31996 | 23278 ft | 367 kts | 96° |
| 2026-05-04 20:08 | 45.59871 | 5.35641 | 22802 ft | 369 kts | 84° |
| 2026-05-04 20:09 | 45.60536 | 5.39180 | 22338 ft | 371 kts | 71° |
| 2026-05-04 20:09 | 45.61645 | 5.42514 | 21870 ft | 371 kts | 66° |
| 2026-05-04 20:09 | 45.62799 | 5.45804 | 21410 ft | 370 kts | 66° |
| 2026-05-04 20:09 | 45.63944 | 5.49086 | 20957 ft | 368 kts | 66° |
| 2026-05-04 20:10 | 45.65079 | 5.52357 | 20514 ft | 367 kts | 66° |
| 2026-05-04 20:10 | 45.66235 | 5.55600 | 20059 ft | 367 kts | 61° |
| 2026-05-04 20:10 | 45.67744 | 5.58537 | 19629 ft | 367 kts | 48° |
| 2026-05-04 20:10 | 45.69653 | 5.60953 | 19205 ft | 367 kts | 35° |
| 2026-05-04 20:11 | 45.71850 | 5.62812 | 18777 ft | 367 kts | 28° |
| 2026-05-04 20:11 | 45.74086 | 5.64563 | 18357 ft | 366 kts | 28° |
| 2026-05-04 20:11 | 45.76318 | 5.66320 | 17925 ft | 365 kts | 28° |
| 2026-05-04 20:11 | 45.78535 | 5.68067 | 17633 ft | 362 kts | 28° |
| 2026-05-04 20:12 | 45.80741 | 5.69811 | 17347 ft | 361 kts | 28° |
| 2026-05-04 20:12 | 45.82929 | 5.71549 | 17053 ft | 359 kts | 28° |
| 2026-05-04 20:12 | 45.85103 | 5.73282 | 16769 ft | 357 kts | 28° |
| 2026-05-04 20:12 | 45.87214 | 5.75130 | 16483 ft | 355 kts | 37° |
| 2026-05-04 20:13 | 45.89024 | 5.77502 | 16204 ft | 353 kts | 50° |
| 2026-05-04 20:13 | 45.90506 | 5.80296 | 15925 ft | 350 kts | 55° |
| 2026-05-04 20:13 | 45.91932 | 5.83123 | 15653 ft | 349 kts | 55° |
| 2026-05-04 20:13 | 45.93356 | 5.85941 | 15381 ft | 348 kts | 55° |
| 2026-05-04 20:14 | 45.94779 | 5.88756 | 15104 ft | 347 kts | 54° |
| 2026-05-04 20:14 | 45.96364 | 5.91366 | 14818 ft | 346 kts | 45° |
| 2026-05-04 20:14 | 45.98066 | 5.93798 | 14505 ft | 344 kts | 45° |
| 2026-05-04 20:14 | 45.99762 | 5.96225 | 14177 ft | 343 kts | 45° |
| 2026-05-04 20:15 | 46.01447 | 5.98645 | 13876 ft | 342 kts | 45° |
| 2026-05-04 20:15 | 46.03122 | 6.01056 | 13538 ft | 339 kts | 45° |
| 2026-05-04 20:15 | 46.04778 | 6.03446 | 13197 ft | 335 kts | 46° |
| 2026-05-04 20:15 | 46.06416 | 6.05811 | 12849 ft | 331 kts | 46° |
| 2026-05-04 20:16 | 46.08033 | 6.08147 | 12517 ft | 328 kts | 46° |
| 2026-05-04 20:16 | 46.09630 | 6.10454 | 12208 ft | 322 kts | 46° |
| 2026-05-04 20:16 | 46.11191 | 6.12726 | 11870 ft | 317 kts | 46° |
| 2026-05-04 20:16 | 46.12729 | 6.14992 | 11562 ft | 315 kts | 47° |
| 2026-05-04 20:17 | 46.14253 | 6.17251 | 11267 ft | 314 kts | 47° |
| 2026-05-04 20:17 | 46.15771 | 6.19513 | 10968 ft | 312 kts | 47° |
| 2026-05-04 20:17 | 46.17269 | 6.21755 | 10671 ft | 309 kts | 48° |
| 2026-05-04 20:17 | 46.18759 | 6.23986 | 10384 ft | 309 kts | 47° |
| 2026-05-04 20:18 | 46.20248 | 6.26205 | 10124 ft | 307 kts | 46° |
| 2026-05-04 20:18 | 46.21735 | 6.28397 | 9863 ft | 304 kts | 46° |
| 2026-05-04 20:18 | 46.23213 | 6.30555 | 9573 ft | 301 kts | 46° |
| 2026-05-04 20:18 | 46.24678 | 6.32684 | 9285 ft | 296 kts | 46° |
| 2026-05-04 20:19 | 46.26091 | 6.34751 | 8998 ft | 290 kts | 46° |
| 2026-05-04 20:19 | 46.27488 | 6.36814 | 8715 ft | 284 kts | 46° |
| 2026-05-04 20:19 | 46.28881 | 6.38863 | 8429 ft | 280 kts | 46° |
| 2026-05-04 20:19 | 46.30247 | 6.40853 | 8094 ft | 279 kts | 45° |
| 2026-05-04 20:20 | 46.31795 | 6.42427 | 7741 ft | 276 kts | 21° |
| 2026-05-04 20:20 | 46.33626 | 6.42813 | 7391 ft | 261 kts | 351° |
| 2026-05-04 20:20 | 46.35263 | 6.41916 | 7055 ft | 247 kts | 322° |
| 2026-05-04 20:20 | 46.36537 | 6.40349 | 6714 ft | 235 kts | 314° |
| 2026-05-04 20:21 | 46.37706 | 6.38754 | 6374 ft | 227 kts | 311° |
| 2026-05-04 20:21 | 46.38539 | 6.36927 | 6011 ft | 213 kts | 285° |
| 2026-05-04 20:21 | 46.38413 | 6.32821 | 5221 ft | 210 kts | 240° |
| 2026-05-04 20:22 | 46.37552 | 6.31163 | 4935 ft | 205 kts | 224° |
| 2026-05-04 20:22 | 46.36558 | 6.29696 | 4653 ft | 203 kts | 225° |
| 2026-05-04 20:22 | 46.35588 | 6.28261 | 4407 ft | 197 kts | 225° |
| 2026-05-04 20:22 | 46.34647 | 6.26870 | 4120 ft | 189 kts | 224° |
| 2026-05-04 20:23 | 46.33735 | 6.25521 | 3863 ft | 186 kts | 225° |
| 2026-05-04 20:23 | 46.32825 | 6.24181 | 3622 ft | 188 kts | 225° |
| 2026-05-04 20:23 | 46.31917 | 6.22841 | 3378 ft | 186 kts | 225° |
| 2026-05-04 20:23 | 46.31032 | 6.21534 | 3128 ft | 176 kts | 225° |
| 2026-05-04 20:24 | 46.30203 | 6.20313 | 2893 ft | 163 kts | 225° |
| 2026-05-04 20:24 | 46.29452 | 6.19206 | 2677 ft | 149 kts | 225° |
| 2026-05-04 20:24 | 46.28740 | 6.18156 | 2475 ft | 144 kts | 225° |
| 2026-05-04 20:24 | 46.28043 | 6.17129 | 2250 ft | 143 kts | 226° |
| 2026-05-04 20:25 | 46.27350 | 6.16108 | 2073 ft | 143 kts | 226° |
| 2026-05-04 20:25 | 46.26660 | 6.15091 | 1882 ft | 142 kts | 225° |
| 2026-05-04 20:25 | 46.25968 | 6.14075 | 1691 ft | 141 kts | 226° |
| 2026-05-04 20:25 | 46.25283 | 6.13067 | 1505 ft | 140 kts | 226° |
| 2026-05-04 20:26 | 46.24613 | 6.12082 | 1371 ft | 126 kts | 225° |
| 2026-05-04 20:26 | 46.24112 | 6.11346 | 1376 ft | 78 kts | 225° |
| 2026-05-04 20:26 | 46.23839 | 6.10944 | 1375 ft | 32 kts | 225° |
| 2026-05-04 20:26 | 46.23680 | 6.10770 | 1380 ft | 29 kts | 204° |
| 2026-05-04 20:27 | 46.23495 | 6.10687 | 1385 ft | 20 kts | 195° |
| 2026-05-04 20:27 | 46.23419 | 6.10703 | 1397 ft | 8 kts | 137° |
| 2026-05-04 20:27 | 46.23384 | 6.10751 | 1396 ft | 6 kts | 136° |
| 2026-05-04 20:27 | 46.23354 | 6.10793 | 1393 ft | 5 kts | 130° |
| 2026-05-04 20:28 | 46.23359 | 6.10847 | 1405 ft | 8 kts | 57° |
| 2026-05-04 20:28 | 46.23394 | 6.10901 | 1396 ft | 8 kts | 45° |
| 2026-05-04 20:28 | 46.23442 | 6.10972 | 1401 ft | 10 kts | 45° |
| 2026-05-04 20:28 | 46.23492 | 6.11046 | 1393 ft | 11 kts | 45° |
| 2026-05-04 20:29 | 46.23536 | 6.11109 | 1393 ft | 4 kts | 45° |
| 2026-05-04 20:29 | 46.23541 | 6.11136 | 1402 ft | 2 kts | 104° |
| 2026-05-04 20:29 | 46.23527 | 6.11163 | 1401 ft | 4 kts | 133° |
| 2026-05-04 20:29 | 46.23509 | 6.11187 | 1399 ft | 3 kts | 136° |
| 2026-05-04 20:30 | 46.23499 | 6.11201 | 1393 ft | 1 kts | 136° |